sensor_id;sensor_type;location;lat;lon;timestamp;pressure;altitude;pressure_sealevel;temperature
69552;BMP280;63774;45.292;11.784;2023-06-22T00:01:56;102148.25;;;27.71
69552;BMP280;63774;45.292;11.784;2023-06-22T00:04:21;102151.70;;;27.71
69552;BMP280;63774;45.292;11.784;2023-06-22T00:06:47;102151.69;;;27.70
69552;BMP280;63774;45.292;11.784;2023-06-22T00:09:12;102154.48;;;27.70
69552;BMP280;63774;45.292;11.784;2023-06-22T00:11:38;102152.23;;;27.69
69552;BMP280;63774;45.292;11.784;2023-06-22T00:14:04;102149.02;;;27.68
69552;BMP280;63774;45.292;11.784;2023-06-22T00:16:31;102151.08;;;27.68
69552;BMP280;63774;45.292;11.784;2023-06-22T00:18:57;102148.28;;;27.67
69552;BMP280;63774;45.292;11.784;2023-06-22T00:21:26;102145.16;;;27.64
69552;BMP280;63774;45.292;11.784;2023-06-22T00:23:51;102149.15;;;27.64
69552;BMP280;63774;45.292;11.784;2023-06-22T00:26:17;102150.70;;;27.63
69552;BMP280;63774;45.292;11.784;2023-06-22T00:28:42;102149.02;;;27.63
69552;BMP280;63774;45.292;11.784;2023-06-22T00:31:08;102146.98;;;27.62
69552;BMP280;63774;45.292;11.784;2023-06-22T00:33:33;102144.41;;;27.60
69552;BMP280;63774;45.292;11.784;2023-06-22T00:35:59;102141.63;;;27.59
69552;BMP280;63774;45.292;11.784;2023-06-22T00:38:24;102139.76;;;27.58
69552;BMP280;63774;45.292;11.784;2023-06-22T00:40:49;102137.73;;;27.58
69552;BMP280;63774;45.292;11.784;2023-06-22T00:43:15;102135.39;;;27.56
69552;BMP280;63774;45.292;11.784;2023-06-22T00:45:40;102136.33;;;27.54
69552;BMP280;63774;45.292;11.784;2023-06-22T00:48:07;102138.65;;;27.54
69552;BMP280;63774;45.292;11.784;2023-06-22T00:50:33;102134.37;;;27.52
69552;BMP280;63774;45.292;11.784;2023-06-22T00:53:03;102123.90;;;27.50
69552;BMP280;63774;45.292;11.784;2023-06-22T00:55:36;102112.98;;;27.49
69552;BMP280;63774;45.292;11.784;2023-06-22T00:58:03;102108.14;;;27.48
69552;BMP280;63774;45.292;11.784;2023-06-22T01:00:31;102104.20;;;27.46
69552;BMP280;63774;45.292;11.784;2023-06-22T01:02:57;102103.33;;;27.45
69552;BMP280;63774;45.292;11.784;2023-06-22T01:05:23;102100.29;;;27.43
69552;BMP280;63774;45.292;11.784;2023-06-22T01:10:55;102111.16;;;27.42
69552;BMP280;63774;45.292;11.784;2023-06-22T01:13:41;102117.91;;;27.43
69552;BMP280;63774;45.292;11.784;2023-06-22T01:16:24;102118.14;;;27.41
69552;BMP280;63774;45.292;11.784;2023-06-22T01:18:53;102116.73;;;27.40
69552;BMP280;63774;45.292;11.784;2023-06-22T01:21:21;102113.65;;;27.40
69552;BMP280;63774;45.292;11.784;2023-06-22T01:23:53;102115.27;;;27.40
69552;BMP280;63774;45.292;11.784;2023-06-22T01:28:55;102123.48;;;27.40
69552;BMP280;63774;45.292;11.784;2023-06-22T01:31:24;102112.23;;;27.38
69552;BMP280;63774;45.292;11.784;2023-06-22T01:33:53;102104.60;;;27.37
69552;BMP280;63774;45.292;11.784;2023-06-22T01:36:19;102105.18;;;27.37
69552;BMP280;63774;45.292;11.784;2023-06-22T01:38:45;102107.17;;;27.35
69552;BMP280;63774;45.292;11.784;2023-06-22T01:41:12;102106.42;;;27.33
69552;BMP280;63774;45.292;11.784;2023-06-22T01:43:37;102108.27;;;27.30
69552;BMP280;63774;45.292;11.784;2023-06-22T01:46:04;102110.31;;;27.31
69552;BMP280;63774;45.292;11.784;2023-06-22T01:48:30;102115.25;;;27.30
69552;BMP280;63774;45.292;11.784;2023-06-22T01:50:55;102122.14;;;27.29
69552;BMP280;63774;45.292;11.784;2023-06-22T01:53:22;102127.20;;;27.28
69552;BMP280;63774;45.292;11.784;2023-06-22T01:55:47;102128.83;;;27.29
69552;BMP280;63774;45.292;11.784;2023-06-22T01:58:13;102125.98;;;27.28
69552;BMP280;63774;45.292;11.784;2023-06-22T02:00:41;102120.35;;;27.25
69552;BMP280;63774;45.292;11.784;2023-06-22T02:03:13;102122.09;;;27.22
69552;BMP280;63774;45.292;11.784;2023-06-22T02:05:49;102120.70;;;27.20
69552;BMP280;63774;45.292;11.784;2023-06-22T02:08:23;102116.89;;;27.21
69552;BMP280;63774;45.292;11.784;2023-06-22T02:10:50;102121.67;;;27.20
69552;BMP280;63774;45.292;11.784;2023-06-22T02:13:17;102131.26;;;27.21
69552;BMP280;63774;45.292;11.784;2023-06-22T02:15:43;102138.52;;;27.21
69552;BMP280;63774;45.292;11.784;2023-06-22T02:18:10;102136.17;;;27.22
69552;BMP280;63774;45.292;11.784;2023-06-22T02:20:39;102126.78;;;27.20
69552;BMP280;63774;45.292;11.784;2023-06-22T02:23:05;102123.30;;;27.19
69552;BMP280;63774;45.292;11.784;2023-06-22T02:25:32;102124.63;;;27.18
69552;BMP280;63774;45.292;11.784;2023-06-22T02:27:57;102130.04;;;27.17
69552;BMP280;63774;45.292;11.784;2023-06-22T02:30:22;102133.79;;;27.15
69552;BMP280;63774;45.292;11.784;2023-06-22T02:32:48;102132.91;;;27.15
69552;BMP280;63774;45.292;11.784;2023-06-22T02:35:13;102129.52;;;27.15
69552;BMP280;63774;45.292;11.784;2023-06-22T02:37:39;102126.52;;;27.14
69552;BMP280;63774;45.292;11.784;2023-06-22T02:40:07;102128.25;;;27.15
69552;BMP280;63774;45.292;11.784;2023-06-22T02:42:34;102134.57;;;27.14
69552;BMP280;63774;45.292;11.784;2023-06-22T02:45:00;102138.55;;;27.15
69552;BMP280;63774;45.292;11.784;2023-06-22T02:47:26;102136.40;;;27.15
69552;BMP280;63774;45.292;11.784;2023-06-22T02:49:51;102132.61;;;27.13
69552;BMP280;63774;45.292;11.784;2023-06-22T02:52:17;102133.23;;;27.12
69552;BMP280;63774;45.292;11.784;2023-06-22T02:54:42;102132.40;;;27.12
69552;BMP280;63774;45.292;11.784;2023-06-22T02:57:10;102132.39;;;27.10
69552;BMP280;63774;45.292;11.784;2023-06-22T02:59:39;102137.22;;;27.10
69552;BMP280;63774;45.292;11.784;2023-06-22T03:02:07;102141.24;;;27.10
69552;BMP280;63774;45.292;11.784;2023-06-22T03:04:33;102145.07;;;27.09
69552;BMP280;63774;45.292;11.784;2023-06-22T03:06:58;102143.23;;;27.09
69552;BMP280;63774;45.292;11.784;2023-06-22T03:09:26;102139.36;;;27.08
69552;BMP280;63774;45.292;11.784;2023-06-22T03:11:53;102135.30;;;27.08
69552;BMP280;63774;45.292;11.784;2023-06-22T03:14:18;102127.23;;;27.06
69552;BMP280;63774;45.292;11.784;2023-06-22T03:16:44;102129.46;;;27.04
69552;BMP280;63774;45.292;11.784;2023-06-22T03:19:09;102128.46;;;27.03
69552;BMP280;63774;45.292;11.784;2023-06-22T03:21:35;102127.98;;;27.02
69552;BMP280;63774;45.292;11.784;2023-06-22T03:24:02;102131.89;;;27.02
69552;BMP280;63774;45.292;11.784;2023-06-22T03:26:28;102136.61;;;27.02
69552;BMP280;63774;45.292;11.784;2023-06-22T03:28:53;102137.51;;;27.00
69552;BMP280;63774;45.292;11.784;2023-06-22T03:31:18;102135.02;;;26.99
69552;BMP280;63774;45.292;11.784;2023-06-22T03:33:47;102136.98;;;26.99
69552;BMP280;63774;45.292;11.784;2023-06-22T03:36:14;102135.92;;;26.97
69552;BMP280;63774;45.292;11.784;2023-06-22T03:38:41;102128.77;;;26.97
69552;BMP280;63774;45.292;11.784;2023-06-22T03:41:06;102130.73;;;26.97
69552;BMP280;63774;45.292;11.784;2023-06-22T03:43:32;102138.17;;;26.96
69552;BMP280;63774;45.292;11.784;2023-06-22T03:45:57;102146.17;;;26.95
69552;BMP280;63774;45.292;11.784;2023-06-22T03:48:23;102146.98;;;26.94
69552;BMP280;63774;45.292;11.784;2023-06-22T03:50:48;102148.86;;;26.94
69552;BMP280;63774;45.292;11.784;2023-06-22T03:53:13;102154.74;;;26.94
69552;BMP280;63774;45.292;11.784;2023-06-22T03:55:48;102149.78;;;26.95
69552;BMP280;63774;45.292;11.784;2023-06-22T03:58:14;102146.34;;;26.94
69552;BMP280;63774;45.292;11.784;2023-06-22T04:00:39;102152.48;;;26.92
69552;BMP280;63774;45.292;11.784;2023-06-22T04:03:04;102150.95;;;26.91
69552;BMP280;63774;45.292;11.784;2023-06-22T04:05:30;102150.64;;;26.91
69552;BMP280;63774;45.292;11.784;2023-06-22T04:07:55;102149.13;;;26.91
69552;BMP280;63774;45.292;11.784;2023-06-22T04:10:21;102147.08;;;26.91
69552;BMP280;63774;45.292;11.784;2023-06-22T04:12:46;102151.85;;;26.92
69552;BMP280;63774;45.292;11.784;2023-06-22T04:15:12;102156.08;;;26.93
69552;BMP280;63774;45.292;11.784;2023-06-22T04:17:37;102157.34;;;26.94
69552;BMP280;63774;45.292;11.784;2023-06-22T04:20:03;102154.14;;;26.96
69552;BMP280;63774;45.292;11.784;2023-06-22T04:22:30;102160.58;;;26.97
69552;BMP280;63774;45.292;11.784;2023-06-22T04:24:55;102156.59;;;26.98
69552;BMP280;63774;45.292;11.784;2023-06-22T04:27:21;102153.92;;;26.98
69552;BMP280;63774;45.292;11.784;2023-06-22T04:29:48;102154.66;;;27.02
69552;BMP280;63774;45.292;11.784;2023-06-22T04:32:15;102147.98;;;27.02
69552;BMP280;63774;45.292;11.784;2023-06-22T04:34:41;102143.77;;;27.03
69552;BMP280;63774;45.292;11.784;2023-06-22T04:37:07;102148.72;;;27.04
69552;BMP280;63774;45.292;11.784;2023-06-22T04:39:32;102146.95;;;27.05
69552;BMP280;63774;45.292;11.784;2023-06-22T04:41:57;102142.63;;;27.07
69552;BMP280;63774;45.292;11.784;2023-06-22T04:44:25;102138.31;;;27.09
69552;BMP280;63774;45.292;11.784;2023-06-22T04:46:56;102136.45;;;27.11
69552;BMP280;63774;45.292;11.784;2023-06-22T04:49:34;102129.75;;;27.14
69552;BMP280;63774;45.292;11.784;2023-06-22T04:52:04;102129.52;;;27.15
69552;BMP280;63774;45.292;11.784;2023-06-22T04:54:30;102120.56;;;27.17
69552;BMP280;63774;45.292;11.784;2023-06-22T04:56:59;102114.05;;;27.18
69552;BMP280;63774;45.292;11.784;2023-06-22T04:59:26;102113.65;;;27.20
69552;BMP280;63774;45.292;11.784;2023-06-22T05:01:54;102115.52;;;27.22
69552;BMP280;63774;45.292;11.784;2023-06-22T05:04:19;102116.73;;;27.24
69552;BMP280;63774;45.292;11.784;2023-06-22T05:06:44;102123.63;;;27.26
69552;BMP280;63774;45.292;11.784;2023-06-22T05:09:10;102119.98;;;27.27
69552;BMP280;63774;45.292;11.784;2023-06-22T05:11:37;102124.58;;;27.29
69552;BMP280;63774;45.292;11.784;2023-06-22T05:14:03;102129.46;;;27.31
69552;BMP280;63774;45.292;11.784;2023-06-22T05:16:28;102128.44;;;27.32
69552;BMP280;63774;45.292;11.784;2023-06-22T05:18:54;102129.92;;;27.33
69552;BMP280;63774;45.292;11.784;2023-06-22T05:21:24;102134.77;;;27.35
69552;BMP280;63774;45.292;11.784;2023-06-22T05:23:51;102133.80;;;27.36
69552;BMP280;63774;45.292;11.784;2023-06-22T05:26:18;102131.39;;;27.38
69552;BMP280;63774;45.292;11.784;2023-06-22T05:28:43;102136.11;;;27.40
69552;BMP280;63774;45.292;11.784;2023-06-22T05:31:15;102137.85;;;27.40
69552;BMP280;63774;45.292;11.784;2023-06-22T05:33:42;102138.02;;;27.42
69552;BMP280;63774;45.292;11.784;2023-06-22T05:36:08;102139.54;;;27.43
69552;BMP280;63774;45.292;11.784;2023-06-22T05:38:34;102144.55;;;27.42
69552;BMP280;63774;45.292;11.784;2023-06-22T05:41:00;102145.23;;;27.44
69552;BMP280;63774;45.292;11.784;2023-06-22T05:43:25;102143.18;;;27.44
69552;BMP280;63774;45.292;11.784;2023-06-22T05:45:50;102144.23;;;27.45
69552;BMP280;63774;45.292;11.784;2023-06-22T05:48:16;102146.55;;;27.46
69552;BMP280;63774;45.292;11.784;2023-06-22T05:50:42;102149.14;;;27.47
69552;BMP280;63774;45.292;11.784;2023-06-22T05:53:07;102148.09;;;27.48
69552;BMP280;63774;45.292;11.784;2023-06-22T05:55:32;102149.14;;;27.49
69552;BMP280;63774;45.292;11.784;2023-06-22T05:57:58;102149.02;;;27.50
69552;BMP280;63774;45.292;11.784;2023-06-22T06:00:23;102146.17;;;27.50
69552;BMP280;63774;45.292;11.784;2023-06-22T06:02:49;102148.27;;;27.51
69552;BMP280;63774;45.292;11.784;2023-06-22T06:05:15;102147.44;;;27.52
69552;BMP280;63774;45.292;11.784;2023-06-22T06:07:45;102143.20;;;27.52
69552;BMP280;63774;45.292;11.784;2023-06-22T06:10:10;102141.70;;;27.53
69552;BMP280;63774;45.292;11.784;2023-06-22T06:12:36;102139.30;;;27.54
69552;BMP280;63774;45.292;11.784;2023-06-22T06:15:02;102139.96;;;27.55
69552;BMP280;63774;45.292;11.784;2023-06-22T06:17:27;102136.58;;;27.56
69552;BMP280;63774;45.292;11.784;2023-06-22T06:19:53;102134.46;;;27.55
69552;BMP280;63774;45.292;11.784;2023-06-22T06:22:18;102131.09;;;27.57
69552;BMP280;63774;45.292;11.784;2023-06-22T06:24:45;102130.42;;;27.58
69552;BMP280;63774;45.292;11.784;2023-06-22T06:27:11;102133.16;;;27.58
69552;BMP280;63774;45.292;11.784;2023-06-22T06:29:36;102127.21;;;27.58
69552;BMP280;63774;45.292;11.784;2023-06-22T06:32:02;102125.73;;;27.59
69552;BMP280;63774;45.292;11.784;2023-06-22T06:34:27;102129.10;;;27.60
69552;BMP280;63774;45.292;11.784;2023-06-22T06:36:52;102125.79;;;27.59
69552;BMP280;63774;45.292;11.784;2023-06-22T06:39:18;102127.58;;;27.60
69552;BMP280;63774;45.292;11.784;2023-06-22T06:41:43;102127.08;;;27.60
69552;BMP280;63774;45.292;11.784;2023-06-22T06:44:09;102127.13;;;27.60
69552;BMP280;63774;45.292;11.784;2023-06-22T06:46:34;102124.23;;;27.61
69552;BMP280;63774;45.292;11.784;2023-06-22T06:49:00;102122.36;;;27.61
69552;BMP280;63774;45.292;11.784;2023-06-22T06:51:25;102118.98;;;27.61
69552;BMP280;63774;45.292;11.784;2023-06-22T06:53:50;102118.90;;;27.62
69552;BMP280;63774;45.292;11.784;2023-06-22T06:56:16;102116.36;;;27.63
69552;BMP280;63774;45.292;11.784;2023-06-22T06:58:41;102115.07;;;27.63
69552;BMP280;63774;45.292;11.784;2023-06-22T07:01:08;102113.49;;;27.65
69552;BMP280;63774;45.292;11.784;2023-06-22T07:03:33;102118.33;;;27.67
69552;BMP280;63774;45.292;11.784;2023-06-22T07:05:59;102115.54;;;27.66
69552;BMP280;63774;45.292;11.784;2023-06-22T07:08:24;102116.55;;;27.66
69552;BMP280;63774;45.292;11.784;2023-06-22T07:10:51;102117.10;;;27.67
69552;BMP280;63774;45.292;11.784;2023-06-22T07:13:17;102117.89;;;27.69
69552;BMP280;63774;45.292;11.784;2023-06-22T07:15:42;102119.94;;;27.69
69552;BMP280;63774;45.292;11.784;2023-06-22T07:18:08;102122.55;;;27.70
69552;BMP280;63774;45.292;11.784;2023-06-22T07:20:33;102121.58;;;27.71
69552;BMP280;63774;45.292;11.784;2023-06-22T07:22:59;102120.59;;;27.71
69552;BMP280;63774;45.292;11.784;2023-06-22T07:25:25;102121.41;;;27.73
69552;BMP280;63774;45.292;11.784;2023-06-22T07:28:00;102117.57;;;27.73
69552;BMP280;63774;45.292;11.784;2023-06-22T07:30:27;102114.98;;;27.73
69552;BMP280;63774;45.292;11.784;2023-06-22T07:32:53;102117.66;;;27.74
69552;BMP280;63774;45.292;11.784;2023-06-22T07:35:18;102116.95;;;27.73
69552;BMP280;63774;45.292;11.784;2023-06-22T07:37:44;102115.98;;;27.74
69552;BMP280;63774;45.292;11.784;2023-06-22T07:40:09;102114.57;;;27.75
69552;BMP280;63774;45.292;11.784;2023-06-22T07:42:35;102114.70;;;27.75
69552;BMP280;63774;45.292;11.784;2023-06-22T07:45:02;102114.33;;;27.76
69552;BMP280;63774;45.292;11.784;2023-06-22T07:47:28;102113.13;;;27.75
69552;BMP280;63774;45.292;11.784;2023-06-22T07:49:58;102112.70;;;27.76
69552;BMP280;63774;45.292;11.784;2023-06-22T07:52:26;102110.08;;;27.76
69552;BMP280;63774;45.292;11.784;2023-06-22T07:54:51;102107.21;;;27.76
69552;BMP280;63774;45.292;11.784;2023-06-22T07:57:17;102109.80;;;27.77
69552;BMP280;63774;45.292;11.784;2023-06-22T07:59:42;102106.11;;;27.76
69552;BMP280;63774;45.292;11.784;2023-06-22T08:02:08;102105.17;;;27.77
69552;BMP280;63774;45.292;11.784;2023-06-22T08:04:34;102099.93;;;27.76
69552;BMP280;63774;45.292;11.784;2023-06-22T08:07:00;102098.23;;;27.76
69552;BMP280;63774;45.292;11.784;2023-06-22T08:09:31;102095.80;;;27.76
69552;BMP280;63774;45.292;11.784;2023-06-22T08:11:58;102091.38;;;27.77
69552;BMP280;63774;45.292;11.784;2023-06-22T08:14:25;102088.72;;;27.77
69552;BMP280;63774;45.292;11.784;2023-06-22T08:16:51;102087.33;;;27.77
69552;BMP280;63774;45.292;11.784;2023-06-22T08:19:16;102091.41;;;27.77
69552;BMP280;63774;45.292;11.784;2023-06-22T08:21:43;102086.89;;;27.77
69552;BMP280;63774;45.292;11.784;2023-06-22T08:24:08;102086.46;;;27.77
69552;BMP280;63774;45.292;11.784;2023-06-22T08:26:33;102092.87;;;27.77
69552;BMP280;63774;45.292;11.784;2023-06-22T08:29:04;102096.84;;;27.77
69552;BMP280;63774;45.292;11.784;2023-06-22T08:31:31;102097.91;;;27.76
69552;BMP280;63774;45.292;11.784;2023-06-22T08:33:58;102099.97;;;27.77
69552;BMP280;63774;45.292;11.784;2023-06-22T08:36:24;102096.77;;;27.76
69552;BMP280;63774;45.292;11.784;2023-06-22T08:38:51;102097.52;;;27.76
69552;BMP280;63774;45.292;11.784;2023-06-22T08:41:17;102097.94;;;27.75
69552;BMP280;63774;45.292;11.784;2023-06-22T08:43:43;102096.53;;;27.75
69552;BMP280;63774;45.292;11.784;2023-06-22T08:46:10;102094.77;;;27.76
69552;BMP280;63774;45.292;11.784;2023-06-22T08:48:36;102094.77;;;27.76
69552;BMP280;63774;45.292;11.784;2023-06-22T08:51:01;102094.21;;;27.76
69552;BMP280;63774;45.292;11.784;2023-06-22T08:53:27;102095.71;;;27.76
69552;BMP280;63774;45.292;11.784;2023-06-22T08:55:53;102097.58;;;27.77
69552;BMP280;63774;45.292;11.784;2023-06-22T08:58:18;102100.73;;;27.77
69552;BMP280;63774;45.292;11.784;2023-06-22T09:00:45;102103.31;;;27.78
69552;BMP280;63774;45.292;11.784;2023-06-22T09:03:10;102102.09;;;27.78
69552;BMP280;63774;45.292;11.784;2023-06-22T09:05:37;102102.62;;;27.78
69552;BMP280;63774;45.292;11.784;2023-06-22T09:08:03;102102.46;;;27.78
69552;BMP280;63774;45.292;11.784;2023-06-22T09:10:28;102100.05;;;27.78
69552;BMP280;63774;45.292;11.784;2023-06-22T09:12:54;102098.81;;;27.78
69552;BMP280;63774;45.292;11.784;2023-06-22T09:15:19;102097.33;;;27.78
69552;BMP280;63774;45.292;11.784;2023-06-22T09:17:45;102097.23;;;27.78
69552;BMP280;63774;45.292;11.784;2023-06-22T09:20:11;102095.77;;;27.79
69552;BMP280;63774;45.292;11.784;2023-06-22T09:22:37;102091.20;;;27.79
69552;BMP280;63774;45.292;11.784;2023-06-22T09:25:04;102089.78;;;27.79
69552;BMP280;63774;45.292;11.784;2023-06-22T09:27:30;102090.94;;;27.79
69552;BMP280;63774;45.292;11.784;2023-06-22T09:29:55;102088.80;;;27.80
69552;BMP280;63774;45.292;11.784;2023-06-22T09:32:23;102089.46;;;27.80
69552;BMP280;63774;45.292;11.784;2023-06-22T09:34:49;102086.27;;;27.80
69552;BMP280;63774;45.292;11.784;2023-06-22T09:37:14;102084.18;;;27.80
69552;BMP280;63774;45.292;11.784;2023-06-22T09:39:40;102077.30;;;27.80
69552;BMP280;63774;45.292;11.784;2023-06-22T09:42:05;102077.23;;;27.81
69552;BMP280;63774;45.292;11.784;2023-06-22T09:44:31;102080.70;;;27.81
69552;BMP280;63774;45.292;11.784;2023-06-22T09:46:56;102079.76;;;27.82
69552;BMP280;63774;45.292;11.784;2023-06-22T09:49:22;102077.05;;;27.82
69552;BMP280;63774;45.292;11.784;2023-06-22T09:51:47;102076.89;;;27.84
69552;BMP280;63774;45.292;11.784;2023-06-22T09:54:14;102079.22;;;27.85
69552;BMP280;63774;45.292;11.784;2023-06-22T09:56:40;102076.80;;;27.86
69552;BMP280;63774;45.292;11.784;2023-06-22T09:59:05;102074.73;;;27.89
69552;BMP280;63774;45.292;11.784;2023-06-22T10:01:31;102074.02;;;27.88
69552;BMP280;63774;45.292;11.784;2023-06-22T10:03:56;102076.35;;;27.88
69552;BMP280;63774;45.292;11.784;2023-06-22T10:06:22;102074.32;;;27.88
69552;BMP280;63774;45.292;11.784;2023-06-22T10:08:48;102072.34;;;27.88
69552;BMP280;63774;45.292;11.784;2023-06-22T10:11:15;102067.02;;;27.87
69552;BMP280;63774;45.292;11.784;2023-06-22T10:13:40;102062.95;;;27.86
69552;BMP280;63774;45.292;11.784;2023-06-22T10:16:05;102065.92;;;27.86
69552;BMP280;63774;45.292;11.784;2023-06-22T10:18:32;102075.82;;;27.86
69552;BMP280;63774;45.292;11.784;2023-06-22T10:20:57;102075.05;;;27.86
69552;BMP280;63774;45.292;11.784;2023-06-22T10:23:23;102077.98;;;27.87
69552;BMP280;63774;45.292;11.784;2023-06-22T10:25:48;102077.36;;;27.87
69552;BMP280;63774;45.292;11.784;2023-06-22T10:28:14;102078.33;;;27.88
69552;BMP280;63774;45.292;11.784;2023-06-22T10:30:40;102075.69;;;27.87
69552;BMP280;63774;45.292;11.784;2023-06-22T10:33:10;102076.39;;;27.87
69552;BMP280;63774;45.292;11.784;2023-06-22T10:35:36;102077.88;;;27.88
69552;BMP280;63774;45.292;11.784;2023-06-22T10:38:05;102073.35;;;27.88
69552;BMP280;63774;45.292;11.784;2023-06-22T10:40:31;102063.95;;;27.88
69552;BMP280;63774;45.292;11.784;2023-06-22T10:42:57;102063.83;;;27.88
69552;BMP280;63774;45.292;11.784;2023-06-22T10:45:22;102061.95;;;27.89
69552;BMP280;63774;45.292;11.784;2023-06-22T10:47:48;102058.30;;;27.88
69552;BMP280;63774;45.292;11.784;2023-06-22T10:50:14;102057.04;;;27.89
69552;BMP280;63774;45.292;11.784;2023-06-22T10:52:40;102055.39;;;27.89
69552;BMP280;63774;45.292;11.784;2023-06-22T10:55:09;102052.53;;;27.89
69552;BMP280;63774;45.292;11.784;2023-06-22T10:57:35;102052.21;;;27.89
69552;BMP280;63774;45.292;11.784;2023-06-22T11:00:01;102048.09;;;27.89
69552;BMP280;63774;45.292;11.784;2023-06-22T11:02:30;102043.65;;;27.90
69552;BMP280;63774;45.292;11.784;2023-06-22T11:04:55;102041.36;;;27.90
69552;BMP280;63774;45.292;11.784;2023-06-22T11:07:21;102045.47;;;27.91
69552;BMP280;63774;45.292;11.784;2023-06-22T11:09:46;102043.45;;;27.91
69552;BMP280;63774;45.292;11.784;2023-06-22T11:12:11;102037.98;;;27.92
69552;BMP280;63774;45.292;11.784;2023-06-22T11:14:38;102036.06;;;27.93
69552;BMP280;63774;45.292;11.784;2023-06-22T11:17:04;102034.29;;;27.93
69552;BMP280;63774;45.292;11.784;2023-06-22T11:19:29;102027.14;;;27.93
69552;BMP280;63774;45.292;11.784;2023-06-22T11:21:55;102023.61;;;27.94
69552;BMP280;63774;45.292;11.784;2023-06-22T11:24:20;102023.00;;;27.93
69552;BMP280;63774;45.292;11.784;2023-06-22T11:26:46;102019.83;;;27.93
69552;BMP280;63774;45.292;11.784;2023-06-22T11:29:11;102017.98;;;27.93
69552;BMP280;63774;45.292;11.784;2023-06-22T11:31:37;102007.73;;;27.93
69552;BMP280;63774;45.292;11.784;2023-06-22T11:34:03;101998.40;;;27.93
69552;BMP280;63774;45.292;11.784;2023-06-22T11:36:29;101985.99;;;27.93
69552;BMP280;63774;45.292;11.784;2023-06-22T11:38:58;101989.58;;;27.93
69552;BMP280;63774;45.292;11.784;2023-06-22T11:41:23;101993.27;;;27.93
69552;BMP280;63774;45.292;11.784;2023-06-22T11:43:48;101989.11;;;27.94
69552;BMP280;63774;45.292;11.784;2023-06-22T11:46:14;101987.10;;;27.94
69552;BMP280;63774;45.292;11.784;2023-06-22T11:48:39;101990.41;;;27.94
69552;BMP280;63774;45.292;11.784;2023-06-22T11:51:05;101994.58;;;27.95
69552;BMP280;63774;45.292;11.784;2023-06-22T11:53:31;101993.00;;;27.94
69552;BMP280;63774;45.292;11.784;2023-06-22T11:55:57;101988.41;;;27.95
69552;BMP280;63774;45.292;11.784;2023-06-22T11:58:22;101981.88;;;27.95
69552;BMP280;63774;45.292;11.784;2023-06-22T12:00:48;101974.48;;;27.95
69552;BMP280;63774;45.292;11.784;2023-06-22T12:03:14;101966.38;;;27.95
69552;BMP280;63774;45.292;11.784;2023-06-22T12:05:40;101958.98;;;27.96
69552;BMP280;63774;45.292;11.784;2023-06-22T12:08:06;101961.66;;;27.97
69552;BMP280;63774;45.292;11.784;2023-06-22T12:10:31;101968.12;;;27.98
69552;BMP280;63774;45.292;11.784;2023-06-22T12:12:57;101971.83;;;28.00
69552;BMP280;63774;45.292;11.784;2023-06-22T12:15:23;101966.91;;;28.01
69552;BMP280;63774;45.292;11.784;2023-06-22T12:17:49;101960.64;;;28.01
69552;BMP280;63774;45.292;11.784;2023-06-22T12:20:14;101955.52;;;28.01
69552;BMP280;63774;45.292;11.784;2023-06-22T12:22:41;101949.80;;;28.02
69552;BMP280;63774;45.292;11.784;2023-06-22T12:25:07;101944.33;;;28.02
69552;BMP280;63774;45.292;11.784;2023-06-22T12:27:33;101934.94;;;28.02
69552;BMP280;63774;45.292;11.784;2023-06-22T12:29:58;101932.27;;;28.03
69552;BMP280;63774;45.292;11.784;2023-06-22T12:32:23;101932.26;;;28.03
69552;BMP280;63774;45.292;11.784;2023-06-22T12:34:49;101935.84;;;28.03
69552;BMP280;63774;45.292;11.784;2023-06-22T12:37:15;101937.28;;;28.03
69552;BMP280;63774;45.292;11.784;2023-06-22T12:39:41;101935.80;;;28.03
69552;BMP280;63774;45.292;11.784;2023-06-22T12:42:07;101935.75;;;28.03
69552;BMP280;63774;45.292;11.784;2023-06-22T12:44:34;101936.32;;;28.03
69552;BMP280;63774;45.292;11.784;2023-06-22T12:47:00;101933.98;;;28.04
69552;BMP280;63774;45.292;11.784;2023-06-22T12:49:25;101930.13;;;28.03
69552;BMP280;63774;45.292;11.784;2023-06-22T12:51:50;101932.04;;;28.03
69552;BMP280;63774;45.292;11.784;2023-06-22T12:54:16;101933.02;;;28.03
69552;BMP280;63774;45.292;11.784;2023-06-22T12:56:41;101927.78;;;28.03
69552;BMP280;63774;45.292;11.784;2023-06-22T12:59:09;101927.10;;;28.04
69552;BMP280;63774;45.292;11.784;2023-06-22T13:01:34;101926.92;;;28.04
69552;BMP280;63774;45.292;11.784;2023-06-22T13:03:59;101929.77;;;28.04
69552;BMP280;63774;45.292;11.784;2023-06-22T13:06:25;101930.78;;;28.04
69552;BMP280;63774;45.292;11.784;2023-06-22T13:08:50;101927.42;;;28.04
69552;BMP280;63774;45.292;11.784;2023-06-22T13:11:16;101926.45;;;28.06
69552;BMP280;63774;45.292;11.784;2023-06-22T13:13:41;101923.40;;;28.06
69552;BMP280;63774;45.292;11.784;2023-06-22T13:16:07;101919.66;;;28.07
69552;BMP280;63774;45.292;11.784;2023-06-22T13:18:33;101916.35;;;28.06
69552;BMP280;63774;45.292;11.784;2023-06-22T13:21:01;101909.59;;;28.07
69552;BMP280;63774;45.292;11.784;2023-06-22T13:23:26;101901.64;;;28.08
69552;BMP280;63774;45.292;11.784;2023-06-22T13:25:52;101896.65;;;28.08
69552;BMP280;63774;45.292;11.784;2023-06-22T13:28:17;101895.52;;;28.09
69552;BMP280;63774;45.292;11.784;2023-06-22T13:30:43;101896.98;;;28.09
69552;BMP280;63774;45.292;11.784;2023-06-22T13:33:11;101899.55;;;28.09
69552;BMP280;63774;45.292;11.784;2023-06-22T13:35:36;101897.92;;;28.09
69552;BMP280;63774;45.292;11.784;2023-06-22T13:38:03;101900.45;;;28.10
69552;BMP280;63774;45.292;11.784;2023-06-22T13:40:28;101896.98;;;28.11
69552;BMP280;63774;45.292;11.784;2023-06-22T13:42:53;101892.94;;;28.11
69552;BMP280;63774;45.292;11.784;2023-06-22T13:45:19;101886.27;;;28.11